Time;durP1;ratioP1;P1;durP2;ratioP2;P2;SDS_P1;SDS_P2;PMS_P1;PMS_P2;Temp;Humidity;BMP_temperature;BMP_pressure;BME280_temperature;BME280_humidity;BME280_pressure;Samples;Min_cycle;Max_cycle;Signal;HPM_P1;HPM_P2
2023/03/11 00:00:25;;;;;;;;;;;4.70;99.90;;;;;;5091917;28;20551;-52
2023/03/11 00:02:54;;;;;;;1.55;0.70;;;4.60;99.90;;;;;;5088338;28;20012;-52
2023/03/11 00:05:33;;;;;;;1.77;0.82;;;4.50;99.90;;;;;;5086270;28;20063;-51
2023/03/11 00:08:00;;;;;;;0.90;0.68;;;4.40;99.90;;;;;;5084692;28;20114;-49
2023/03/11 00:10:39;;;;;;;1.10;0.75;;;4.30;99.90;;;;;;5091344;28;20071;-50
2023/03/11 00:13:11;;;;;;;3.78;0.90;;;4.30;99.90;;;;;;5087288;28;20040;-49
2023/03/11 00:15:38;;;;;;;1.27;0.73;;;4.30;99.90;;;;;;5065875;28;20490;-50
2023/03/11 00:18:06;;;;;;;0.77;0.75;;;4.40;99.90;;;;;;5092397;28;20515;-50
2023/03/11 00:20:34;;;;;;;;;;;4.40;99.90;;;;;;5092145;28;20078;-50
2023/03/11 00:23:02;;;;;;;2.65;1.02;;;4.40;99.90;;;;;;5082766;28;19959;-49
2023/03/11 00:25:31;;;;;;;2.25;1.20;;;4.30;99.90;;;;;;5091740;28;20051;-50
2023/03/11 00:27:58;;;;;;;1.67;1.00;;;4.30;99.90;;;;;;5092014;28;20079;-50
2023/03/11 00:30:25;;;;;;;2.28;1.27;;;4.10;99.90;;;;;;5090306;28;20385;-52
2023/03/11 00:32:54;;;;;;;3.20;1.08;;;4.00;99.90;;;;;;5086752;28;20128;-51
2023/03/11 00:35:24;;;;;;;2.08;1.45;;;3.90;99.90;;;;;;5072546;28;20040;-48
2023/03/11 00:37:57;;;;;;;2.33;1.30;;;3.80;99.90;;;;;;5089319;28;20047;-53
2023/03/11 00:40:25;;;;;;;4.00;1.38;;;3.70;99.90;;;;;;5068657;28;20040;-49
2023/03/11 00:42:52;;;;;;;2.83;1.30;;;3.40;99.90;;;;;;5073661;28;20040;-51
2023/03/11 00:45:20;;;;;;;1.80;1.30;;;3.20;99.90;;;;;;5073183;28;20653;-51
2023/03/11 00:47:46;;;;;;;;;;;3.10;99.90;;;;;;5091667;28;20071;-49
2023/03/11 00:50:16;;;;;;;1.48;1.23;;;3.10;99.90;;;;;;5086880;28;19965;-50
2023/03/11 00:52:45;;;;;;;1.08;0.93;;;3.10;99.90;;;;;;5090348;28;20419;-49
2023/03/11 00:55:17;;;;;;;2.50;1.17;;;3.10;99.90;;;;;;5087987;28;20396;-50
2023/03/11 00:57:44;;;;;;;2.08;1.40;;;3.20;99.90;;;;;;5070077;28;20053;-50
2023/03/11 01:00:17;;;;;;;1.88;1.65;;;3.20;99.90;;;;;;5061029;28;20613;-52
2023/03/11 01:02:43;;;;;;;1.83;1.10;;;3.20;99.90;;;;;;5080122;28;20097;-50
2023/03/11 01:05:11;;;;;;;1.80;1.20;;;3.20;99.90;;;;;;5070789;28;20067;-50
2023/03/11 01:07:38;;;;;;;1.65;1.35;;;3.20;99.90;;;;;;5067499;28;20055;-49
2023/03/11 01:10:07;;;;;;;3.38;1.50;;;3.20;99.90;;;;;;5066554;28;20040;-50
2023/03/11 01:12:34;;;;;;;1.80;1.17;;;3.20;99.90;;;;;;5071708;28;20051;-52
2023/03/11 01:15:01;;;;;;;2.33;1.13;;;3.20;99.90;;;;;;5069009;28;20496;-51
2023/03/11 01:17:28;;;;;;;2.20;1.23;;;3.20;99.90;;;;;;5088582;28;20552;-50
2023/03/11 01:19:54;;;;;;;2.45;1.25;;;3.20;99.90;;;;;;5085934;28;20040;-53
2023/03/11 01:22:21;;;;;;;1.73;1.15;;;3.30;99.90;;;;;;5071725;28;20051;-50
2023/03/11 01:24:48;;;;;;;4.63;1.30;;;3.20;99.90;;;;;;5084874;28;20617;-50
2023/03/11 01:27:14;;;;;;;1.73;1.00;;;3.30;99.90;;;;;;5071254;28;20059;-53
2023/03/11 01:29:41;;;;;;;1.63;1.13;;;3.30;99.90;;;;;;5069098;28;20056;-49
2023/03/11 01:32:09;;;;;;;2.03;1.17;;;3.30;99.90;;;;;;5089433;28;20458;-50
2023/03/11 01:34:36;;;;;;;1.92;1.27;;;3.20;99.90;;;;;;5086812;28;20496;-50
2023/03/11 01:37:03;;;;;;;1.95;1.45;;;3.30;99.90;;;;;;5086349;28;20040;-49
2023/03/11 01:39:30;;;;;;;2.15;1.50;;;3.20;99.90;;;;;;5085856;28;20032;-49
2023/03/11 01:41:57;;;;;;;2.80;0.73;;;3.20;99.90;;;;;;5087352;28;20040;-49
2023/03/11 01:44:24;;;;;;;1.35;1.05;;;3.20;99.90;;;;;;5067443;28;20040;-53
2023/03/11 01:46:51;;;;;;;2.17;1.27;;;3.20;99.90;;;;;;5090703;28;20048;-49
2023/03/11 01:49:21;;;;;;;2.55;1.13;;;3.20;99.90;;;;;;5089076;28;20131;-49
2023/03/11 01:51:56;;;;;;;2.20;1.42;;;3.20;99.90;;;;;;5072171;28;20036;-51
2023/03/11 01:54:35;;;;;;;2.45;0.93;;;3.30;99.90;;;;;;5083039;28;20036;-51
2023/03/11 01:57:08;;;;;;;1.42;0.90;;;3.30;99.90;;;;;;5090078;28;20519;-53
2023/03/11 01:59:39;;;;;;;1.98;1.05;;;3.40;99.90;;;;;;5063492;28;20709;-52
2023/03/11 02:02:15;;;;;;;2.55;1.20;;;3.30;99.90;;;;;;5070279;28;20040;-50
2023/03/11 02:04:42;;;;;;;3.22;1.30;;;3.30;99.90;;;;;;5073162;28;20564;-50
2023/03/11 02:07:10;;;;;;;0.93;0.80;;;3.30;99.90;;;;;;5068384;28;20577;-49
2023/03/11 02:09:37;;;;;;;1.20;0.80;;;3.40;99.90;;;;;;5084586;28;20127;-53
2023/03/11 02:12:06;;;;;;;1.88;1.17;;;3.40;99.90;;;;;;5071971;28;20630;-49
2023/03/11 02:14:34;;;;;;;1.30;0.82;;;3.40;99.90;;;;;;5072915;28;20154;-50
2023/03/11 02:17:02;;;;;;;1.33;1.00;;;3.40;99.90;;;;;;5071369;28;20047;-49
2023/03/11 02:19:45;;;;;;;1.00;0.90;;;3.40;99.90;;;;;;5058733;28;20052;-51
2023/03/11 02:22:13;;;;;;;1.90;1.20;;;3.40;99.90;;;;;;5062839;28;20474;-49
2023/03/11 02:24:44;;;;;;;;;;;3.40;99.90;;;;;;5073259;28;20040;-51
2023/03/11 02:27:13;;;;;;;1.73;1.13;;;3.40;99.90;;;;;;5069916;28;19956;-49
2023/03/11 02:29:42;;;;;;;1.58;1.00;;;3.40;99.90;;;;;;5057304;28;20512;-49
2023/03/11 02:32:09;;;;;;;0.95;0.70;;;3.30;99.90;;;;;;5051935;28;20041;-49
2023/03/11 02:34:41;;;;;;;1.58;1.20;;;3.30;99.90;;;;;;5055622;28;20049;-49
2023/03/11 02:37:13;;;;;;;1.80;1.23;;;3.20;99.90;;;;;;5085725;28;20041;-51
2023/03/11 02:39:46;;;;;;;0.80;0.73;;;3.10;99.90;;;;;;5076020;28;20048;-49
2023/03/11 02:42:27;;;;;;;1.63;0.90;;;3.10;99.90;;;;;;5059553;28;20063;-49
2023/03/11 02:45:09;;;;;;;1.75;1.17;;;3.00;99.90;;;;;;5092750;28;20043;-50
2023/03/11 02:47:38;;;;;;;2.10;1.25;;;2.90;99.90;;;;;;5080537;28;20067;-50
2023/03/11 02:50:11;;;;;;;2.20;1.55;;;2.90;99.90;;;;;;5074686;28;20048;-49
2023/03/11 02:52:38;;;;;;;4.40;1.85;;;2.90;99.90;;;;;;5094177;28;20442;-49
2023/03/11 02:55:06;;;;;;;2.90;1.65;;;2.90;99.90;;;;;;5084774;28;20105;-49
2023/03/11 02:57:33;;;;;;;2.60;1.45;;;2.80;99.90;;;;;;5094577;28;20040;-49
2023/03/11 03:00:05;;;;;;;3.30;1.38;;;2.70;99.90;;;;;;5074705;28;20048;-49
2023/03/11 03:02:34;;;;;;;4.43;1.70;;;2.70;99.90;;;;;;5075882;28;20036;-49
2023/03/11 03:05:01;;;;;;;4.60;1.58;;;2.70;99.90;;;;;;5082942;28;20458;-50
2023/03/11 03:07:28;;;;;;;2.83;1.88;;;2.70;99.90;;;;;;5076376;28;20040;-52
2023/03/11 03:09:55;;;;;;;2.15;1.20;;;2.80;99.90;;;;;;5065990;28;20520;-50
2023/03/11 03:12:22;;;;;;;1.17;1.05;;;2.80;99.90;;;;;;5084528;28;20044;-49
2023/03/11 03:14:48;;;;;;;2.80;1.67;;;2.80;99.90;;;;;;5091661;28;20054;-49
2023/03/11 03:17:15;;;;;;;2.42;1.40;;;2.80;99.90;;;;;;5093635;28;20107;-49
2023/03/11 03:19:44;;;;;;;2.47;1.65;;;2.80;99.90;;;;;;5066226;28;20051;-49
2023/03/11 03:22:11;;;;;;;4.65;1.70;;;2.90;99.90;;;;;;5091821;28;20131;-52
2023/03/11 03:24:39;;;;;;;2.22;1.40;;;2.90;99.90;;;;;;5074727;28;20044;-49
2023/03/11 03:27:06;;;;;;;2.17;1.33;;;2.90;99.90;;;;;;5085379;28;20120;-51
2023/03/11 03:29:33;;;;;;;2.15;1.40;;;2.90;99.90;;;;;;5044176;22;20050;-58
2023/03/11 03:32:30;;;;;;;2.67;1.40;;;3.00;99.90;;;;;;5010378;28;20045;-58
2023/03/11 03:34:58;;;;;;;1.92;1.38;;;3.00;99.90;;;;;;5012109;28;20050;-59
2023/03/11 03:37:36;;;;;;;1.83;1.30;;;3.00;99.90;;;;;;5011646;28;20513;-57
2023/03/11 03:40:08;;;;;;;2.38;1.50;;;3.00;99.90;;;;;;4983313;28;20039;-56
2023/03/11 03:42:36;;;;;;;2.55;1.40;;;3.00;99.90;;;;;;4988366;28;20039;-59
2023/03/11 03:45:06;;;;;;;2.40;1.58;;;3.00;99.90;;;;;;5010416;28;20125;-59
2023/03/11 03:47:34;;;;;;;3.00;1.40;;;3.00;99.90;;;;;;5027324;28;20136;-57
2023/03/11 03:50:03;;;;;;;2.80;1.48;;;3.00;99.90;;;;;;5011799;28;20530;-59
2023/03/11 03:52:30;;;;;;;2.03;1.40;;;3.00;99.90;;;;;;5019958;28;20121;-58
2023/03/11 03:54:57;;;;;;;2.10;1.40;;;3.00;99.90;;;;;;5020369;28;20042;-58
2023/03/11 03:57:24;;;;;;;2.88;1.33;;;2.90;99.90;;;;;;5012688;28;20095;-59
2023/03/11 03:59:51;;;;;;;2.95;1.58;;;2.90;99.90;;;;;;5028429;28;20046;-58
2023/03/11 04:02:17;;;;;;;2.25;1.20;;;2.90;99.90;;;;;;5006726;28;20046;-57
2023/03/11 04:04:45;;;;;;;;;;;2.80;99.90;;;;;;5008307;28;20066;-60
2023/03/11 04:07:12;;;;;;;2.13;1.27;;;2.80;99.90;;;;;;5011157;28;19928;-59
2023/03/11 04:09:43;;;;;;;2.28;1.52;;;2.70;99.90;;;;;;5026210;28;20064;-57
2023/03/11 04:12:13;;;;;;;1.88;1.30;;;2.70;99.90;;;;;;5002138;28;20460;-59
2023/03/11 04:14:41;;;;;;;2.88;1.85;;;2.60;99.90;;;;;;5028588;28;20046;-58
2023/03/11 04:17:10;;;;;;;2.15;1.30;;;2.60;99.90;;;;;;5012194;28;20044;-56
2023/03/11 04:19:37;;;;;;;3.33;1.60;;;2.60;99.90;;;;;;5010038;28;20092;-59
2023/03/11 04:22:04;;;;;;;3.33;1.52;;;2.60;99.90;;;;;;5002361;28;20095;-58
2023/03/11 04:24:32;;;;;;;2.28;1.58;;;2.60;99.90;;;;;;5011954;28;20462;-55
2023/03/11 04:26:59;;;;;;;3.63;1.45;;;2.60;99.90;;;;;;5011899;28;20054;-60
2023/03/11 04:29:26;;;;;;;3.38;1.30;;;2.60;99.90;;;;;;5019294;28;20046;-60
2023/03/11 04:31:53;;;;;;;;;;;2.70;99.90;;;;;;5004233;28;20486;-59
2023/03/11 04:34:20;;;;;;;2.53;1.45;;;2.70;99.90;;;;;;5012930;28;19948;-59
2023/03/11 04:36:49;;;;;;;3.25;1.50;;;2.70;99.90;;;;;;5022216;28;20511;-58
2023/03/11 04:39:16;;;;;;;1.73;1.40;;;2.70;99.90;;;;;;5002774;28;20038;-58
2023/03/11 04:41:45;;;;;;;3.17;1.42;;;2.70;99.90;;;;;;5027196;28;20072;-59
2023/03/11 04:44:16;;;;;;;3.72;1.35;;;2.70;99.90;;;;;;5011371;28;20046;-59
2023/03/11 04:46:43;;;;;;;3.55;1.50;;;2.70;99.90;;;;;;4992575;28;20096;-57
2023/03/11 04:49:10;;;;;;;3.28;1.58;;;2.60;99.90;;;;;;5018731;28;20076;-59
2023/03/11 04:51:37;;;;;;;3.10;2.00;;;2.50;99.90;;;;;;5027120;28;20392;-57
2023/03/11 04:54:06;;;;;;;4.15;2.10;;;2.50;99.90;;;;;;5009528;28;20054;-59
2023/03/11 04:56:33;;;;;;;2.05;1.27;;;2.40;99.90;;;;;;5002287;28;20038;-57
2023/03/11 04:59:00;;;;;;;3.95;2.17;;;2.30;99.90;;;;;;5026903;28;20046;-58
2023/03/11 05:01:29;;;;;;;2.92;1.80;;;2.30;99.90;;;;;;4994300;28;20128;-59
2023/03/11 05:03:58;;;;;;;2.88;1.80;;;2.20;99.90;;;;;;5018043;28;20402;-57
2023/03/11 05:06:25;;;;;;;2.63;1.63;;;2.10;99.90;;;;;;5019824;28;20050;-57
2023/03/11 05:08:52;;;;;;;4.10;2.13;;;2.00;99.90;;;;;;5026676;28;20514;-57
2023/03/11 05:11:19;;;;;;;4.65;2.20;;;2.00;99.90;;;;;;5010326;28;20058;-57
2023/03/11 05:13:46;;;;;;;4.60;2.00;;;2.00;99.90;;;;;;5016817;28;20056;-59
2023/03/11 05:16:14;;;;;;;3.45;1.92;;;1.90;99.90;;;;;;5009577;28;20414;-58
2023/03/11 05:18:40;;;;;;;3.92;2.05;;;1.80;99.90;;;;;;5026461;28;20100;-58
2023/03/11 05:21:10;;;;;;;3.90;2.15;;;1.70;99.90;;;;;;4992908;28;20069;-59
2023/03/11 05:23:36;;;;;;;3.80;2.30;;;1.60;99.90;;;;;;4998121;28;20503;-57
2023/03/11 05:26:04;;;;;;;2.88;1.58;;;1.50;99.90;;;;;;5010010;28;20478;-58
2023/03/11 05:28:32;;;;;;;5.00;2.80;;;1.50;99.90;;;;;;5008994;28;20050;-59
2023/03/11 05:30:59;;;;;;;4.63;2.42;;;1.40;99.90;;;;;;5020429;28;20060;-60
2023/03/11 05:33:34;;;;;;;6.93;2.80;;;1.40;99.90;;;;;;5017644;28;20040;-58
2023/03/11 05:36:09;;;;;;;4.72;2.72;;;1.30;99.90;;;;;;5027249;28;20503;-60
2023/03/11 05:38:39;;;;;;;3.33;1.95;;;1.30;99.90;;;;;;5009190;28;20395;-60
2023/03/11 05:41:06;;;;;;;4.53;2.50;;;1.30;99.90;;;;;;5018066;28;20050;-59
2023/03/11 05:43:33;;;;;;;;;;;1.30;99.90;;;;;;5003876;28;20046;-59
2023/03/11 05:46:00;;;;;;;5.18;2.40;;;1.30;99.90;;;;;;5010339;28;20067;-58
2023/03/11 05:48:26;;;;;;;6.18;2.50;;;1.30;99.90;;;;;;5021172;28;20395;-58
2023/03/11 05:50:53;;;;;;;7.72;4.47;;;1.20;99.90;;;;;;5003600;28;20056;-58
2023/03/11 05:53:21;;;;;;;5.93;3.35;;;1.30;99.90;;;;;;5025652;28;20042;-58
2023/03/11 05:55:58;;;;;;;;;;;1.30;99.90;;;;;;5023298;28;20104;-59
2023/03/11 05:58:30;;;;;;;5.72;2.63;;;1.30;99.90;;;;;;4996606;28;20298;-58
2023/03/11 06:00:59;;;;;;;5.07;2.83;;;1.30;99.90;;;;;;5026715;28;20067;-59
2023/03/11 06:03:26;;;;;;;5.07;2.45;;;1.30;99.90;;;;;;5007808;28;20041;-59
2023/03/11 06:05:52;;;;;;;6.07;2.70;;;1.30;99.90;;;;;;5018274;28;20049;-59
2023/03/11 06:08:20;;;;;;;6.18;2.95;;;1.30;99.90;;;;;;5008677;28;20145;-59
2023/03/11 06:10:47;;;;;;;10.15;2.92;;;1.40;99.90;;;;;;5009333;28;20034;-59
2023/03/11 06:13:15;;;;;;;5.93;2.88;;;1.40;99.90;;;;;;5001131;28;20072;-58
2023/03/11 06:15:48;;;;;;;5.47;2.80;;;1.40;99.90;;;;;;5026283;28;20060;-58
2023/03/11 06:18:15;;;;;;;6.82;3.20;;;1.40;99.90;;;;;;5008006;28;20050;-59
2023/03/11 06:20:42;;;;;;;5.75;2.40;;;1.50;99.90;;;;;;4997801;28;20053;-56
2023/03/11 06:23:10;;;;;;;;;;;1.50;99.90;;;;;;5010142;28;20076;-58
2023/03/11 06:25:36;;;;;;;8.82;2.78;;;1.50;99.90;;;;;;5009586;28;20364;-59
2023/03/11 06:28:04;;;;;;;4.90;2.60;;;1.50;99.90;;;;;;5015464;28;20562;-58
2023/03/11 06:30:31;;;;;;;;;;;1.60;99.90;;;;;;5026297;28;20577;-58
2023/03/11 06:33:04;;;;;;;9.27;2.85;;;1.60;99.90;;;;;;5009372;28;19926;-57
2023/03/11 06:35:31;;;;;;;5.53;2.72;;;1.60;99.90;;;;;;5006134;28;20061;-59
2023/03/11 06:37:58;;;;;;;10.57;3.20;;;1.70;99.90;;;;;;5001083;28;20034;-58
2023/03/11 06:40:25;;;;;;;5.03;3.03;;;1.70;99.90;;;;;;5025728;28;20049;-58
2023/03/11 06:42:52;;;;;;;6.22;2.63;;;1.70;99.90;;;;;;5023886;28;20565;-59
2023/03/11 06:45:21;;;;;;;4.03;2.30;;;1.80;99.90;;;;;;5016861;28;20092;-59
2023/03/11 06:47:49;;;;;;;6.22;1.85;;;1.80;99.90;;;;;;5025969;28;20042;-59
2023/03/11 06:50:16;;;;;;;3.35;1.85;;;1.80;99.90;;;;;;5024899;28;20100;-58
2023/03/11 06:52:43;;;;;;;;;;;1.90;99.90;;;;;;5025143;28;20133;-58
2023/03/11 06:55:10;;;;;;;6.63;1.70;;;2.00;99.90;;;;;;5016619;28;19921;-54
2023/03/11 06:57:36;;;;;;;5.13;2.15;;;2.00;99.90;;;;;;5026276;28;20503;-59
2023/03/11 07:00:11;;;;;;;3.53;1.55;;;2.00;99.90;;;;;;5024716;28;20045;-56
2023/03/11 07:02:39;;;;;;;8.20;2.47;;;2.00;99.90;;;;;;5008127;28;20049;-56
2023/03/11 07:05:06;;;;;;;3.58;1.58;;;2.00;99.90;;;;;;5016767;28;20053;-56
2023/03/11 07:07:33;;;;;;;4.60;1.85;;;2.00;99.90;;;;;;5011001;28;20112;-57
2023/03/11 07:10:03;;;;;;;3.13;1.55;;;2.10;99.90;;;;;;5024404;28;20122;-56
2023/03/11 07:12:30;;;;;;;4.10;1.30;;;2.10;99.90;;;;;;5016785;28;20108;-59
2023/03/11 07:14:58;;;;;;;3.75;1.35;;;2.10;99.90;;;;;;5016540;28;20034;-57
2023/03/11 07:17:26;;;;;;;4.07;1.50;;;2.20;99.90;;;;;;5025745;28;20042;-57
2023/03/11 07:19:53;;;;;;;;;;;2.20;99.90;;;;;;5005298;28;20046;-57
2023/03/11 07:22:20;;;;;;;2.95;1.33;;;2.30;99.90;;;;;;5004964;28;19921;-58
2023/03/11 07:24:48;;;;;;;3.67;1.33;;;2.30;99.90;;;;;;5013154;28;20042;-57
2023/03/11 07:27:15;;;;;;;2.83;1.20;;;2.40;99.90;;;;;;5014027;28;20050;-56
2023/03/11 07:29:42;;;;;;;1.65;1.08;;;2.40;99.90;;;;;;5003616;28;20117;-57
2023/03/11 07:32:09;;;;;;;3.20;1.60;;;2.50;99.90;;;;;;5012815;28;20565;-57
2023/03/11 07:34:35;;;;;;;3.38;1.10;;;2.50;99.90;;;;;;5011877;28;20042;-58
2023/03/11 07:37:02;;;;;;;2.75;1.30;;;2.50;99.90;;;;;;5010349;28;20042;-58
2023/03/11 07:39:29;;;;;;;1.40;1.17;;;2.60;99.90;;;;;;5006086;28;20491;-56
2023/03/11 07:41:56;;;;;;;1.73;0.93;;;2.60;99.90;;;;;;5013697;28;20092;-58
2023/03/11 07:44:32;;;;;;;3.05;1.20;;;2.60;99.90;;;;;;5022648;28;20045;-57
2023/03/11 07:47:02;;;;;;;1.20;0.90;;;2.60;99.90;;;;;;5005331;28;20206;-59
2023/03/11 07:49:29;;;;;;;2.33;1.10;;;2.60;99.90;;;;;;5012367;28;20461;-58
2023/03/11 07:51:55;;;;;;;4.05;1.30;;;2.60;99.90;;;;;;5027559;28;20422;-57
2023/03/11 07:54:22;;;;;;;2.05;0.80;;;2.70;99.90;;;;;;5004604;28;20039;-55
2023/03/11 07:56:49;;;;;;;2.35;1.10;;;2.70;99.90;;;;;;5013425;28;20080;-59
2023/03/11 07:59:15;;;;;;;1.52;0.90;;;2.70;99.90;;;;;;5012391;28;20050;-57
2023/03/11 08:01:45;;;;;;;1.92;0.80;;;2.80;99.90;;;;;;5004134;28;20038;-58
2023/03/11 08:04:15;;;;;;;1.23;0.77;;;2.70;99.90;;;;;;5012264;28;20052;-57
2023/03/11 08:06:45;;;;;;;2.70;1.10;;;2.70;99.90;;;;;;5012952;28;20041;-58
2023/03/11 08:09:12;;;;;;;1.85;0.90;;;2.80;99.90;;;;;;5011941;28;20093;-58
2023/03/11 08:11:39;;;;;;;2.03;0.80;;;2.80;99.90;;;;;;5004325;28;20034;-55
2023/03/11 08:14:06;;;;;;;2.55;1.10;;;2.80;99.90;;;;;;5011364;28;20065;-56
2023/03/11 08:16:33;;;;;;;2.97;1.08;;;2.80;99.90;;;;;;5012659;28;20050;-56
2023/03/11 08:18:59;;;;;;;4.07;1.00;;;2.80;99.90;;;;;;5010261;28;20100;-59
2023/03/11 08:21:30;;;;;;;4.03;1.60;;;2.90;99.90;;;;;;5004186;28;20119;-59
2023/03/11 08:23:59;;;;;;;1.38;0.70;;;2.80;99.90;;;;;;4997550;28;20053;-57
2023/03/11 08:26:26;;;;;;;3.15;1.70;;;2.80;99.90;;;;;;4992366;28;20537;-56
2023/03/11 08:28:53;;;;;;;6.75;1.50;;;2.80;99.90;;;;;;5000303;28;20053;-58
2023/03/11 08:31:26;;;;;;;2.03;1.17;;;2.80;99.90;;;;;;5004160;28;20054;-57
2023/03/11 08:33:59;;;;;;;1.67;1.08;;;2.80;99.90;;;;;;4993255;28;20062;-56
2023/03/11 08:36:27;;;;;;;2.08;1.13;;;2.80;99.90;;;;;;4992574;28;20046;-56
2023/03/11 08:38:54;;;;;;;3.30;1.27;;;2.80;99.90;;;;;;5004141;28;20073;-58
2023/03/11 08:41:20;;;;;;;;;;;2.90;99.90;;;;;;5012175;28;20105;-58
2023/03/11 08:43:47;;;;;;;2.15;1.58;;;3.00;99.90;;;;;;5012935;28;19971;-56
2023/03/11 08:46:36;;;;;;;2.03;1.08;;;3.00;99.90;;;;;;5008992;28;20104;-57
2023/03/11 08:49:03;;;;;;;;;;;3.10;99.90;;;;;;5007174;28;20454;-58
2023/03/11 08:51:32;;;;;;;1.48;1.00;;;3.10;99.90;;;;;;5000624;28;19928;-56
2023/03/11 08:53:59;;;;;;;1.90;0.93;;;3.20;99.90;;;;;;5002974;28;20445;-59
2023/03/11 08:56:27;;;;;;;2.65;1.10;;;3.20;99.90;;;;;;5001754;28;20050;-60
2023/03/11 08:58:54;;;;;;;1.75;1.08;;;3.30;99.90;;;;;;5008822;28;20053;-61
2023/03/11 09:01:21;;;;;;;1.23;0.90;;;3.40;99.90;;;;;;5011401;28;20081;-53
2023/03/11 09:03:48;;;;;;;5.18;1.52;;;3.50;99.90;;;;;;5007522;28;20511;-51
2023/03/11 09:06:16;;;;;;;2.30;1.20;;;3.60;99.90;;;;;;5003128;28;20046;-51
2023/03/11 09:08:44;;;;;;;3.75;1.15;;;3.60;99.90;;;;;;5011588;28;20045;-56
2023/03/11 09:11:12;;;;;;;5.28;2.30;;;3.50;99.90;;;;;;5007139;28;20069;-53
2023/03/11 09:13:40;;;;;;;2.22;1.00;;;3.50;99.90;;;;;;4993708;28;20049;-55
2023/03/11 09:16:11;;;;;;;3.70;1.10;;;3.50;99.90;;;;;;4983613;28;20119;-52
2023/03/11 09:18:38;;;;;;;1.63;1.17;;;3.60;99.90;;;;;;4983016;28;20046;-50
2023/03/11 09:21:05;;;;;;;3.67;1.23;;;3.80;99.90;;;;;;4982464;28;20042;-55
2023/03/11 09:23:32;;;;;;;1.27;1.00;;;4.00;99.90;;;;;;4983503;28;20096;-55
2023/03/11 09:25:59;;;;;;;2.03;1.60;;;4.10;99.90;;;;;;4982850;28;20057;-57
2023/03/11 09:28:25;;;;;;;2.83;1.30;;;4.10;99.90;;;;;;4981836;28;20042;-56
2023/03/11 09:30:52;;;;;;;2.40;1.40;;;4.20;99.90;;;;;;5009725;22;20044;-48
2023/03/11 09:33:46;;;;;;;3.03;1.10;;;4.20;99.90;;;;;;5106614;28;20044;-48
2023/03/11 09:36:23;;;;;;;4.25;1.90;;;4.00;99.90;;;;;;5088677;28;20052;-50
2023/03/11 09:38:50;;;;;;;2.22;1.50;;;4.10;99.90;;;;;;5089787;28;20047;-48
2023/03/11 09:41:17;;;;;;;2.25;1.70;;;4.10;99.90;;;;;;5089708;28;20462;-49
2023/03/11 09:43:58;;;;;;;3.37;1.30;;;4.00;99.90;;;;;;5078918;28;20523;-48
2023/03/11 09:46:51;;;;;;;3.10;2.40;;;4.00;99.90;;;;;;5085094;28;20798;-49
2023/03/11 09:50:02;;;;;;;3.47;1.60;;;4.10;99.90;;;;;;5070075;28;20036;-47
2023/03/11 09:52:45;;;;;;;4.03;1.67;;;4.10;99.90;;;;;;5070803;28;20059;-50
2023/03/11 09:55:20;;;;;;;3.45;1.90;;;4.10;99.90;;;;;;5080559;28;20052;-50
2023/03/11 09:57:48;;;;;;;6.50;1.75;;;4.20;99.90;;;;;;5084143;28;20047;-48
2023/03/11 10:00:16;;;;;;;;;;;4.40;99.90;;;;;;5071210;28;20524;-50
2023/03/11 10:02:43;;;;;;;2.83;1.33;;;4.50;99.90;;;;;;5078026;28;19936;-47
2023/03/11 10:05:24;;;;;;;4.30;1.33;;;4.60;99.90;;;;;;5090574;28;20051;-51
2023/03/11 10:08:10;;;;;;;4.35;1.70;;;4.50;99.90;;;;;;5084485;28;20041;-47
2023/03/11 10:10:44;;;;;;;4.50;1.92;;;4.50;99.90;;;;;;5076778;28;20492;-49
2023/03/11 10:13:22;;;;;;;4.07;1.75;;;4.40;99.90;;;;;;5064433;28;20044;-49
2023/03/11 10:16:10;;;;;;;5.32;2.00;;;4.30;99.90;;;;;;5091193;28;20093;-51
2023/03/11 10:18:52;;;;;;;3.25;1.58;;;4.20;99.90;;;;;;5071235;28;20415;-51
2023/03/11 10:21:19;;;;;;;3.60;1.80;;;4.10;99.90;;;;;;5082868;28;20044;-48
2023/03/11 10:24:13;;;;;;;5.30;2.35;;;4.10;99.90;;;;;;5090409;28;20048;-51
2023/03/11 10:26:49;;;;;;;3.03;1.85;;;4.10;99.90;;;;;;5090044;28;20105;-49
2023/03/11 10:30:01;;;;;;;3.25;1.63;;;4.00;99.90;;;;;;5085648;28;20037;-51
2023/03/11 10:32:57;;;;;;;5.55;2.00;;;3.80;99.90;;;;;;5007268;28;20415;-47
2023/03/11 10:35:37;;;;;;;3.20;2.10;;;3.80;99.90;;;;;;5007916;28;21951;-51
2023/03/11 10:38:21;;;;;;;3.80;1.60;;;3.90;99.90;;;;;;5069039;28;20126;-48
2023/03/11 10:40:52;;;;;;;3.80;1.85;;;4.10;99.90;;;;;;5070232;28;20562;-50
2023/03/11 10:43:25;;;;;;;3.95;1.65;;;4.10;99.90;;;;;;5070796;28;20074;-51
2023/03/11 10:45:53;;;;;;;3.47;1.83;;;4.20;99.90;;;;;;5077404;28;20043;-48
2023/03/11 10:48:23;;;;;;;5.82;1.83;;;4.20;99.90;;;;;;5078209;28;20520;-50
2023/03/11 10:51:12;;;;;;;2.95;1.73;;;4.10;99.90;;;;;;5069540;28;20040;-49
2023/03/11 10:53:53;;;;;;;4.03;1.50;;;4.00;99.90;;;;;;5060530;28;20396;-47
2023/03/11 10:56:31;;;;;;;4.05;1.50;;;4.10;99.90;;;;;;5086169;28;20059;-48
2023/03/11 10:58:59;;;;;;;10.00;1.95;;;4.10;99.90;;;;;;5090992;28;20044;-48
2023/03/11 11:01:27;;;;;;;4.70;1.85;;;4.10;99.90;;;;;;5088019;28;20400;-48
2023/03/11 11:03:57;;;;;;;3.65;1.30;;;4.00;99.90;;;;;;5091898;28;20051;-47
2023/03/11 11:06:27;;;;;;;4.20;1.92;;;3.90;99.90;;;;;;5089074;28;20040;-48
2023/03/11 11:09:03;;;;;;;8.35;1.40;;;3.80;99.90;;;;;;5093285;28;20039;-47
2023/03/11 11:11:30;;;;;;;4.60;1.95;;;3.70;99.90;;;;;;5084343;28;20040;-48
2023/03/11 11:13:59;;;;;;;7.97;1.63;;;3.70;99.90;;;;;;5063757;28;20097;-49
2023/03/11 11:16:27;;;;;;;6.38;1.58;;;3.70;99.90;;;;;;5073498;28;20036;-48
2023/03/11 11:19:08;;;;;;;6.63;2.00;;;3.80;99.90;;;;;;5073001;28;20036;-49
2023/03/11 11:21:41;;;;;;;6.57;1.80;;;3.90;99.90;;;;;;5081565;28;20040;-48
2023/03/11 11:24:19;;;;;;;4.03;1.50;;;3.90;99.90;;;;;;5091230;28;20044;-48
2023/03/11 11:27:05;;;;;;;;;;;3.80;99.90;;;;;;5074382;28;20056;-48
2023/03/11 11:29:33;;;;;;;4.88;1.58;;;3.90;99.90;;;;;;5072296;28;20447;-48
2023/03/11 11:32:24;;;;;;;5.00;1.80;;;3.90;99.90;;;;;;5088317;28;20036;-47
2023/03/11 11:35:00;;;;;;;4.50;1.60;;;4.00;99.90;;;;;;5079193;28;20040;-47
2023/03/11 11:37:30;;;;;;;4.85;1.60;;;4.10;99.90;;;;;;5073569;28;20044;-50
2023/03/11 11:40:35;;;;;;;4.25;2.10;;;4.10;99.90;;;;;;5072992;28;20067;-48
2023/03/11 11:43:17;;;;;;;4.20;1.73;;;4.10;99.90;;;;;;5069837;28;20036;-47
2023/03/11 11:46:00;;;;;;;5.22;1.70;;;4.20;99.90;;;;;;5093807;28;20105;-49
2023/03/11 11:49:03;;;;;;;2.25;1.38;;;4.20;99.90;;;;;;5085943;28;20064;-48
2023/03/11 11:51:39;;;;;;;3.33;1.58;;;4.20;99.90;;;;;;5086975;28;20541;-47
2023/03/11 11:54:39;;;;;;;3.90;1.60;;;4.20;99.90;;;;;;5093059;28;20048;-49
2023/03/11 11:57:12;;;;;;;2.97;1.48;;;4.20;99.90;;;;;;5083825;28;20036;-48
2023/03/11 11:59:39;;;;;;;3.85;1.50;;;4.30;99.90;;;;;;5073869;28;20102;-49
2023/03/11 12:02:07;;;;;;;;;;;4.40;99.90;;;;;;5073414;28;20044;-48
2023/03/11 12:04:42;;;;;;;4.32;1.70;;;4.50;99.90;;;;;;5078117;28;19950;-48
2023/03/11 12:07:47;;;;;;;3.00;1.40;;;4.70;99.90;;;;;;5083404;28;20040;-48
2023/03/11 12:10:35;;;;;;;3.78;1.75;;;4.80;99.90;;;;;;5087766;28;20113;-48
2023/03/11 12:13:16;;;;;;;4.00;1.65;;;4.80;99.90;;;;;;5089489;28;20044;-48
2023/03/11 12:16:13;;;;;;;4.13;1.50;;;4.70;99.90;;;;;;5088839;28;20097;-48
2023/03/11 12:18:49;;;;;;;2.17;1.40;;;4.60;99.90;;;;;;5087348;28;20492;-48
2023/03/11 12:21:33;;;;;;;2.55;1.40;;;4.50;99.90;;;;;;5087098;28;20518;-47
2023/03/11 12:24:09;;;;;;;1.83;1.40;;;4.40;99.90;;;;;;5086458;28;20052;-48
2023/03/11 12:26:38;;;;;;;2.20;1.33;;;4.30;99.90;;;;;;5089444;28;20089;-49
2023/03/11 12:29:22;;;;;;;3.08;1.58;;;4.20;99.90;;;;;;5086572;28;20039;-47
2023/03/11 12:31:49;;;;;;;2.05;1.50;;;4.30;99.90;;;;;;5083984;28;20032;-48
2023/03/11 12:34:18;;;;;;;;;;;4.40;99.90;;;;;;5092920;28;20041;-48
2023/03/11 12:36:47;;;;;;;1.63;1.35;;;4.50;99.90;;;;;;5086534;28;19924;-48
2023/03/11 12:39:23;;;;;;;2.10;1.40;;;4.60;99.90;;;;;;5086313;28;20036;-48
2023/03/11 12:42:10;;;;;;;6.15;1.45;;;4.60;99.90;;;;;;5088547;28;20101;-48
2023/03/11 12:44:38;;;;;;;4.35;1.30;;;4.70;99.90;;;;;;5070679;28;20060;-49
2023/03/11 12:47:11;;;;;;;2.67;1.08;;;4.70;99.90;;;;;;5061098;28;20057;-49
2023/03/11 12:49:43;;;;;;;5.65;1.52;;;4.70;99.90;;;;;;5071850;28;20036;-50
2023/03/11 12:52:12;;;;;;;3.95;1.52;;;4.70;99.90;;;;;;5080489;28;20091;-48
2023/03/11 12:54:40;;;;;;;2.35;1.40;;;4.80;99.90;;;;;;5083606;28;20134;-48
2023/03/11 12:57:17;;;;;;;3.08;1.20;;;4.80;99.90;;;;;;5091553;28;20059;-48
2023/03/11 13:00:16;;;;;;;2.75;1.33;;;4.90;99.90;;;;;;5090675;28;20098;-48
2023/03/11 13:03:13;;;;;;;3.95;1.83;;;5.00;99.90;;;;;;5080131;28;20041;-50
2023/03/11 13:06:18;;;;;;;1.35;1.10;;;5.10;99.90;;;;;;5076668;28;20109;-49
2023/03/11 13:08:53;;;;;;;4.53;1.63;;;5.30;99.90;;;;;;5091623;28;20400;-49
2023/03/11 13:11:42;;;;;;;3.75;1.60;;;5.40;99.90;;;;;;5083752;28;20036;-47
2023/03/11 13:14:22;;;;;;;6.35;1.20;;;5.30;99.90;;;;;;5072603;28;20040;-47
2023/03/11 13:16:49;;;;;;;3.83;1.25;;;5.50;99.90;;;;;;5072957;28;20052;-48
2023/03/11 13:19:25;;;;;;;2.42;1.60;;;5.50;99.90;;;;;;5078642;28;20040;-51
2023/03/11 13:21:53;;;;;;;2.10;1.10;;;5.40;99.90;;;;;;5071535;28;20045;-49
2023/03/11 13:24:28;;;;;;;3.08;1.30;;;5.40;99.90;;;;;;5070527;28;20066;-48